createdAt,value
2018-10-11T00:00:40.480Z,21.83
2018-10-11T00:03:09.079Z,22.13
2018-10-11T00:05:37.544Z,26.17
2018-10-11T00:08:05.801Z,24.40
2018-10-11T00:10:34.094Z,24.57
2018-10-11T00:13:02.353Z,25.27
2018-10-11T00:15:30.721Z,24.63
2018-10-11T00:17:58.964Z,24.50
2018-10-11T00:20:27.272Z,28.67
2018-10-11T00:22:55.686Z,26.73
2018-10-11T00:25:23.993Z,26.77
2018-10-11T00:27:52.273Z,27.43
2018-10-11T00:30:20.569Z,25.17
2018-10-11T00:32:48.867Z,23.33
2018-10-11T00:35:17.207Z,25.33
2018-10-11T00:37:45.488Z,24.40
2018-10-11T00:40:13.768Z,22.43
2018-10-11T00:42:42.022Z,21.90
2018-10-11T00:45:10.311Z,21.77
2018-10-11T00:47:38.565Z,20.57
2018-10-11T00:50:06.816Z,22.90
2018-10-11T00:52:35.752Z,24.13
2018-10-11T00:55:04.044Z,25.73
2018-10-11T00:57:32.321Z,22.23
2018-10-11T01:00:00.618Z,21.20
2018-10-11T01:02:28.884Z,21.97
2018-10-11T01:04:57.206Z,24.43
2018-10-11T01:07:25.472Z,25.10
2018-10-11T01:09:53.808Z,23.80
2018-10-11T01:12:22.109Z,23.70
2018-10-11T01:14:50.429Z,23.70
2018-10-11T01:17:18.783Z,25.67
2018-10-11T01:19:47.465Z,27.10
2018-10-11T01:22:15.760Z,30.60
2018-10-11T01:24:44.078Z,28.00
2018-10-11T01:27:12.377Z,26.43
2018-10-11T01:29:40.665Z,27.87
2018-10-11T01:32:08.995Z,25.60
2018-10-11T01:34:37.323Z,26.50
2018-10-11T01:37:05.637Z,24.87
2018-10-11T01:39:33.915Z,21.87
2018-10-11T01:42:02.222Z,23.17
2018-10-11T01:44:30.526Z,21.30
2018-10-11T01:46:59.180Z,20.87
2018-10-11T01:49:27.500Z,21.63
2018-10-11T01:51:55.837Z,21.43
2018-10-11T01:54:24.113Z,23.03
2018-10-11T01:56:52.565Z,29.20
2018-10-11T01:59:20.804Z,27.17
2018-10-11T02:01:49.107Z,22.37
2018-10-11T02:04:17.403Z,24.27
2018-10-11T02:06:45.732Z,26.00
2018-10-11T02:09:14.021Z,31.10
2018-10-11T02:11:42.443Z,29.27
2018-10-11T02:14:10.727Z,26.57
2018-10-11T02:16:39.012Z,26.90
2018-10-11T02:19:07.311Z,24.37
2018-10-11T02:21:35.605Z,27.80
2018-10-11T02:24:03.887Z,27.33
2018-10-11T02:26:32.180Z,25.97
2018-10-11T02:29:00.765Z,28.93
2018-10-11T02:31:29.045Z,35.43
2018-10-11T02:33:57.352Z,25.70
2018-10-11T02:36:25.688Z,30.43
2018-10-11T02:38:53.982Z,26.57
2018-10-11T02:41:22.303Z,27.83
2018-10-11T02:43:50.653Z,24.27
2018-10-11T02:46:18.968Z,25.17
2018-10-11T02:48:47.273Z,25.63
2018-10-11T02:51:15.602Z,27.00
2018-10-11T02:53:43.926Z,25.47
2018-10-11T02:56:12.234Z,23.43
2018-10-11T02:59:55.697Z,23.43
2018-10-11T03:02:24.506Z,23.10
2018-10-11T03:04:53.181Z,22.07
2018-10-11T03:07:21.508Z,22.93
2018-10-11T03:09:49.818Z,23.17
2018-10-11T03:12:18.096Z,23.73
2018-10-11T03:14:46.374Z,23.60
2018-10-11T03:17:14.695Z,23.07
2018-10-11T03:19:43.524Z,23.70
2018-10-11T03:22:12.318Z,23.43
2018-10-11T03:24:41.817Z,24.90
2018-10-11T03:27:10.154Z,25.77
2018-10-11T03:29:38.489Z,26.00
2018-10-11T03:32:07.084Z,24.20
2018-10-11T03:34:35.691Z,24.17
2018-10-11T03:37:04.008Z,21.37
2018-10-11T03:39:32.287Z,20.93
2018-10-11T03:42:00.567Z,22.90
2018-10-11T03:44:29.306Z,23.83
2018-10-11T03:46:57.613Z,21.63
2018-10-11T03:49:26.265Z,22.93
2018-10-11T03:51:54.556Z,24.13
2018-10-11T03:54:23.042Z,24.77
2018-10-11T03:56:51.296Z,25.73
2018-10-11T03:59:19.682Z,25.00
2018-10-11T04:01:47.996Z,23.27
2018-10-11T04:04:16.594Z,26.73
2018-10-11T04:06:44.907Z,25.27
2018-10-11T04:09:13.255Z,26.23
2018-10-11T04:11:41.920Z,23.10
2018-10-11T04:14:10.224Z,21.93
2018-10-11T04:16:38.491Z,22.97
2018-10-11T04:19:06.950Z,21.50
2018-10-11T04:21:35.236Z,22.03
2018-10-11T04:24:03.528Z,21.70
2018-10-11T04:26:31.799Z,21.03
2018-10-11T04:29:00.072Z,20.77
2018-10-11T04:31:28.287Z,19.80
2018-10-11T04:33:56.534Z,21.87
2018-10-11T04:36:25.308Z,20.77
2018-10-11T04:38:53.578Z,21.10
2018-10-11T04:41:21.859Z,19.77
2018-10-11T04:43:50.174Z,22.13
2018-10-11T04:46:18.409Z,20.93
2018-10-11T04:48:46.659Z,19.93
2018-10-11T04:51:14.963Z,22.23
2018-10-11T04:53:43.278Z,20.93
2018-10-11T04:56:11.945Z,20.13
2018-10-11T04:58:40.191Z,20.37
2018-10-11T05:01:08.475Z,21.07
2018-10-11T05:03:36.743Z,22.27
2018-10-11T05:06:05.085Z,20.07
2018-10-11T05:08:33.386Z,21.20
2018-10-11T05:11:02.193Z,20.03
2018-10-11T05:13:39.508Z,19.37
2018-10-11T05:16:07.787Z,18.87
2018-10-11T05:18:38.059Z,19.13
2018-10-11T05:21:06.578Z,20.53
2018-10-11T05:23:34.859Z,20.73
2018-10-11T05:26:03.187Z,22.10
2018-10-11T05:28:31.374Z,22.83
2018-10-11T05:31:00.708Z,24.40
2018-10-11T05:33:29.858Z,26.97
2018-10-11T05:35:58.134Z,23.93
2018-10-11T05:38:26.468Z,24.10
2018-10-11T05:40:54.812Z,23.90
2018-10-11T05:43:23.114Z,24.30
2018-10-11T05:45:55.285Z,23.57
2018-10-11T05:48:24.402Z,25.23
2018-10-11T05:50:52.727Z,23.47
2018-10-11T05:53:21.022Z,24.67
2018-10-11T05:55:49.627Z,24.77
2018-10-11T05:58:18.448Z,24.27
2018-10-11T06:00:46.740Z,24.33
2018-10-11T06:03:15.063Z,22.17
2018-10-11T06:05:43.307Z,23.03
2018-10-11T06:08:11.604Z,23.20
2018-10-11T06:10:41.639Z,23.60
2018-10-11T06:13:10.463Z,23.07
2018-10-11T06:15:38.865Z,22.90
2018-10-11T06:18:07.252Z,23.97
2018-10-11T06:20:35.936Z,23.63
2018-10-11T06:23:04.453Z,23.27
2018-10-11T06:25:32.763Z,25.10
2018-10-11T06:28:01.031Z,23.73
2018-10-11T06:30:30.708Z,24.50
2018-10-11T06:32:58.928Z,22.73
2018-10-11T06:35:27.448Z,22.87
2018-10-11T06:37:55.680Z,24.67
2018-10-11T06:40:23.927Z,22.47
2018-10-11T06:42:52.506Z,24.87
2018-10-11T06:45:20.725Z,25.70
2018-10-11T06:47:52.040Z,26.70
2018-10-11T06:50:20.545Z,25.53
2018-10-11T06:52:48.726Z,30.27
2018-10-11T06:55:16.992Z,29.53
2018-10-11T06:57:45.242Z,24.60
2018-10-11T07:00:13.481Z,24.33
2018-10-11T07:02:41.772Z,24.57
2018-10-11T07:05:09.993Z,25.23
2018-10-11T07:07:44.945Z,24.90
2018-10-11T07:10:14.755Z,22.87
2018-10-11T07:12:43.147Z,23.67
2018-10-11T07:15:11.372Z,23.40
2018-10-11T07:17:39.659Z,23.57
2018-10-11T07:20:07.914Z,22.80
2018-10-11T07:22:36.170Z,21.40
2018-10-11T07:25:04.748Z,23.13
2018-10-11T07:27:32.985Z,23.00
2018-10-11T07:30:01.244Z,20.03
2018-10-11T07:32:29.609Z,19.53
2018-10-11T07:34:57.913Z,23.23
2018-10-11T07:37:26.077Z,22.30
2018-10-11T07:39:54.342Z,19.70
2018-10-11T07:42:22.581Z,20.87
2018-10-11T07:44:50.880Z,23.33
2018-10-11T07:47:19.137Z,23.40
2018-10-11T07:49:47.378Z,23.97
2018-10-11T07:52:15.611Z,24.77
2018-10-11T07:54:43.846Z,23.43
2018-10-11T07:57:12.058Z,23.73
2018-10-11T07:59:40.289Z,25.93
2018-10-11T08:02:08.518Z,27.43
2018-10-11T08:04:37.054Z,28.80
2018-10-11T08:07:05.644Z,28.50
2018-10-11T08:09:33.921Z,27.73
2018-10-11T08:12:02.351Z,24.57
2018-10-11T08:14:30.415Z,28.90
2018-10-11T08:16:58.782Z,29.93
2018-10-11T08:19:27.094Z,30.43
2018-10-11T08:21:55.168Z,31.30
2018-10-11T08:24:23.447Z,33.10
2018-10-11T08:26:51.735Z,32.53
2018-10-11T08:29:19.907Z,40.17
2018-10-11T08:31:48.143Z,35.70
2018-10-11T08:34:16.359Z,42.00
2018-10-11T08:36:44.648Z,34.90
2018-10-11T08:39:16.542Z,51.97
2018-10-11T08:41:44.763Z,39.07
2018-10-11T08:44:13.640Z,44.47
2018-10-11T08:46:41.997Z,37.20
2018-10-11T08:49:10.314Z,40.70
2018-10-11T08:51:38.673Z,40.00
2018-10-11T08:54:12.317Z,39.27
2018-10-11T08:56:40.599Z,36.20
2018-10-11T08:59:08.893Z,35.63
2018-10-11T09:01:37.507Z,42.30
2018-10-11T09:04:06.310Z,39.53
2018-10-11T09:06:34.494Z,41.73
2018-10-11T09:09:02.780Z,43.43
2018-10-11T09:11:31.129Z,40.03
2018-10-11T09:13:59.337Z,37.30
2018-10-11T09:16:27.606Z,39.10
2018-10-11T09:18:56.142Z,43.23
2018-10-11T09:21:24.394Z,43.77
2018-10-11T09:23:53.291Z,40.90
2018-10-11T09:26:21.547Z,49.00
2018-10-11T09:28:49.886Z,40.37
2018-10-11T09:31:18.168Z,41.67
2018-10-11T09:33:46.467Z,40.97
2018-10-11T09:36:14.731Z,46.67
2018-10-11T09:38:43.224Z,47.20
2018-10-11T09:41:11.705Z,45.13
2018-10-11T09:43:40.025Z,39.13
2018-10-11T09:46:09.291Z,40.90
2018-10-11T09:48:37.624Z,41.17
2018-10-11T09:51:06.172Z,39.77
2018-10-11T09:53:34.479Z,38.40
2018-10-11T09:56:02.806Z,33.57
2018-10-11T09:58:31.114Z,36.30
2018-10-11T10:01:04.909Z,37.90
2018-10-11T10:03:34.474Z,38.33
2018-10-11T10:06:03.137Z,42.90
2018-10-11T10:08:31.825Z,35.37
2018-10-11T10:11:00.193Z,36.77
2018-10-11T10:13:28.467Z,38.03
2018-10-11T10:15:56.757Z,34.40
2018-10-11T10:18:25.337Z,32.80
2018-10-11T10:20:54.003Z,35.13
2018-10-11T10:23:22.654Z,34.23
2018-10-11T10:25:50.949Z,33.90
2018-10-11T10:28:19.192Z,33.92
2018-10-11T10:30:53.661Z,33.93
2018-10-11T10:33:23.067Z,32.73
2018-10-11T10:35:51.384Z,35.37
2018-10-11T10:38:20.224Z,33.02
2018-10-11T10:40:49.320Z,32.55
2018-10-11T10:43:17.614Z,33.40
2018-10-11T10:45:45.848Z,31.23
2018-10-11T10:48:14.128Z,33.30
2018-10-11T10:50:42.379Z,31.95
2018-10-11T10:53:10.619Z,37.40
2018-10-11T10:55:38.960Z,31.87
2018-10-11T10:58:07.249Z,33.00
2018-10-11T11:00:35.538Z,34.90
2018-10-11T11:03:03.814Z,32.75
2018-10-11T11:05:32.081Z,33.00
2018-10-11T11:08:00.547Z,33.83
2018-10-11T11:10:28.812Z,34.50
2018-10-11T11:12:57.063Z,36.63
2018-10-11T11:15:25.412Z,34.45
2018-10-11T11:17:53.648Z,35.85
2018-10-11T11:20:21.960Z,39.10
2018-10-11T11:22:50.209Z,36.38
2018-10-11T11:25:18.556Z,38.33
2018-10-11T11:27:46.791Z,37.25
2018-10-11T11:30:15.072Z,35.33
2018-10-11T11:32:43.683Z,31.15
2018-10-11T11:35:11.949Z,32.53
2018-10-11T11:37:40.243Z,31.15
2018-10-11T11:40:08.605Z,36.63
2018-10-11T11:42:37.123Z,36.35
2018-10-11T11:45:05.831Z,33.00
2018-10-11T11:47:34.116Z,34.78
2018-10-11T11:50:02.375Z,29.12
2018-10-11T11:52:30.655Z,33.75
2018-10-11T11:54:59.322Z,36.00
2018-10-11T11:57:27.841Z,34.90
2018-10-11T11:59:56.120Z,38.78
2018-10-11T12:02:24.410Z,33.28
2018-10-11T12:04:52.673Z,35.92
2018-10-11T12:07:20.927Z,35.28
2018-10-11T12:09:49.183Z,29.42
2018-10-11T12:12:55.651Z,32.93
2018-10-11T12:15:25.102Z,32.58
2018-10-11T12:17:54.780Z,35.60
2018-10-11T12:20:24.913Z,33.33
2018-10-11T12:22:53.996Z,36.50
2018-10-11T12:25:22.339Z,33.88
2018-10-11T12:27:50.651Z,33.20
2018-10-11T12:30:18.945Z,30.82
2018-10-11T12:32:47.535Z,34.18
2018-10-11T12:35:17.154Z,35.92
2018-10-11T12:37:45.650Z,36.75
2018-10-11T12:40:14.154Z,34.08
2018-10-11T12:42:42.732Z,33.80
2018-10-11T12:45:11.870Z,33.33
2018-10-11T12:47:40.617Z,32.98
2018-10-11T12:50:09.889Z,35.15
2018-10-11T12:52:38.121Z,38.90
2018-10-11T12:55:06.699Z,34.67
2018-10-11T12:57:35.478Z,35.58
2018-10-11T13:00:03.832Z,37.88
2018-10-11T13:02:33.104Z,35.63
2018-10-11T13:05:01.450Z,33.63
2018-10-11T13:07:30.498Z,33.40
2018-10-11T13:09:58.735Z,34.40
2018-10-11T13:12:27.009Z,35.17
2018-10-11T13:14:55.328Z,33.42
2018-10-11T13:17:24.039Z,32.00
2018-10-11T13:19:52.348Z,33.05
2018-10-11T13:22:21.030Z,31.90
2018-10-11T13:24:49.679Z,33.98
2018-10-11T13:27:17.966Z,35.73
2018-10-11T13:29:46.503Z,32.67
2018-10-11T13:32:14.801Z,33.42
2018-10-11T13:34:43.170Z,34.85
2018-10-11T13:37:11.455Z,35.13
2018-10-11T13:39:46.081Z,34.95
2018-10-11T13:42:09.904Z,32.55
2018-10-11T13:44:38.256Z,31.27
2018-10-11T13:47:06.584Z,32.15
2018-10-11T13:49:35.078Z,32.25
2018-10-11T13:52:04.038Z,30.23
2018-10-11T13:54:32.739Z,27.52
2018-10-11T13:57:02.894Z,27.02
2018-10-11T13:59:29.970Z,27.82
2018-10-11T14:01:58.449Z,27.37
2018-10-11T14:04:26.845Z,26.40
2018-10-11T14:06:55.426Z,28.35
2018-10-11T14:09:23.960Z,23.98
2018-10-11T14:11:52.319Z,25.62
2018-10-11T14:14:20.623Z,28.38
2018-10-11T14:16:49.371Z,26.70
2018-10-11T14:19:17.996Z,32.42
2018-10-11T14:21:46.584Z,27.35
2018-10-11T14:24:15.223Z,26.37
2018-10-11T14:26:43.972Z,27.42
2018-10-11T14:29:12.274Z,26.93
2018-10-11T14:31:40.573Z,32.08
2018-10-11T14:34:09.355Z,29.82
2018-10-11T14:36:37.767Z,26.87
2018-10-11T14:39:07.269Z,27.05
2018-10-11T14:41:35.672Z,32.28
2018-10-11T14:44:04.529Z,26.77
2018-10-11T14:46:32.781Z,28.57
2018-10-11T14:49:01.427Z,28.02
2018-10-11T14:51:29.817Z,26.23
2018-10-11T14:53:59.721Z,26.40
2018-10-11T14:56:27.895Z,26.30
2018-10-11T14:58:56.219Z,29.30
2018-10-11T15:01:25.553Z,28.85
2018-10-11T15:03:53.818Z,25.50
2018-10-11T15:06:22.142Z,28.35
2018-10-11T15:08:50.423Z,27.25
2018-10-11T15:11:18.761Z,29.30
2018-10-11T15:13:46.939Z,29.07
2018-10-11T15:16:15.239Z,24.52
2018-10-11T15:18:43.496Z,26.80
2018-10-11T15:21:11.789Z,27.00
2018-10-11T15:23:40.078Z,25.08
2018-10-11T15:26:08.460Z,21.50
2018-10-11T15:28:36.767Z,22.62
2018-10-11T15:31:06.566Z,24.95
2018-10-11T15:33:34.835Z,25.52
2018-10-11T15:36:04.545Z,22.93
2018-10-11T15:38:32.852Z,23.20
2018-10-11T15:41:01.166Z,23.77
2018-10-11T15:43:29.499Z,24.07
2018-10-11T15:45:57.747Z,25.08
2018-10-11T15:48:26.400Z,26.00
2018-10-11T15:50:54.677Z,25.77
2018-10-11T15:53:22.967Z,25.57
2018-10-11T15:55:51.218Z,24.75
2018-10-11T15:58:19.561Z,26.12
2018-10-11T16:00:47.810Z,26.45
2018-10-11T16:03:16.320Z,23.50
2018-10-11T16:05:44.637Z,23.92
2018-10-11T16:08:12.907Z,23.87
2018-10-11T16:10:41.287Z,22.73
2018-10-11T16:13:09.514Z,25.48
2018-10-11T16:15:37.774Z,26.77
2018-10-11T16:18:06.043Z,21.97
2018-10-11T16:20:34.286Z,20.45
2018-10-11T16:23:02.858Z,22.80
2018-10-11T16:25:31.156Z,19.50
2018-10-11T16:27:59.828Z,21.90
2018-10-11T16:30:28.149Z,20.85
2018-10-11T16:32:56.405Z,19.82
2018-10-11T16:35:25.071Z,20.17
2018-10-11T16:37:53.331Z,18.98
2018-10-11T16:40:22.348Z,19.77
2018-10-11T16:42:51.039Z,20.90
2018-10-11T16:45:19.331Z,19.02
2018-10-11T16:47:47.663Z,20.12
2018-10-11T16:50:15.966Z,19.23
2018-10-11T16:52:44.258Z,17.52
2018-10-11T16:55:12.804Z,19.17
2018-10-11T16:57:41.143Z,17.85
2018-10-11T17:00:09.479Z,19.23
2018-10-11T17:02:38.525Z,18.27
2018-10-11T17:05:06.914Z,19.15
2018-10-11T17:07:35.196Z,19.20
2018-10-11T17:10:03.621Z,19.17
2018-10-11T17:12:32.268Z,18.48
2018-10-11T17:15:00.540Z,18.23
2018-10-11T17:17:29.040Z,18.55
2018-10-11T17:19:57.671Z,17.75
2018-10-11T17:22:25.899Z,21.45
2018-10-11T17:24:54.202Z,18.40
2018-10-11T17:27:22.544Z,21.27
2018-10-11T17:29:50.889Z,18.62
2018-10-11T17:32:19.124Z,19.42
2018-10-11T17:34:47.391Z,17.48
2018-10-11T17:37:16.014Z,19.17
2018-10-11T17:39:44.321Z,21.62
2018-10-11T17:42:13.348Z,25.30
2018-10-11T17:44:42.009Z,19.73
2018-10-11T17:47:10.286Z,20.50
2018-10-11T17:49:38.559Z,22.13
2018-10-11T17:52:06.848Z,21.42
2018-10-11T17:54:35.155Z,24.18
2018-10-11T17:57:03.444Z,20.70
2018-10-11T17:59:32.109Z,23.27
2018-10-11T18:02:00.424Z,23.55
2018-10-11T18:04:28.743Z,23.87
2018-10-11T18:06:56.975Z,26.30
2018-10-11T18:09:25.327Z,24.23
2018-10-11T18:11:53.635Z,23.77
2018-10-11T18:14:21.995Z,23.32
2018-10-11T18:16:50.612Z,23.85
2018-10-11T18:19:19.268Z,24.32
2018-10-11T18:21:47.623Z,21.37
2018-10-11T18:24:15.854Z,24.47
2018-10-11T18:26:44.219Z,23.42
2018-10-11T18:29:12.516Z,24.57
2018-10-11T18:31:40.757Z,25.68
2018-10-11T18:34:09.040Z,25.55
2018-10-11T18:36:37.314Z,25.68
2018-10-11T18:39:10.604Z,23.87
2018-10-11T18:41:39.116Z,27.00
2018-10-11T18:44:07.738Z,24.02
2018-10-11T18:46:36.077Z,24.05
2018-10-11T18:49:04.646Z,23.35
2018-10-11T18:51:32.906Z,24.70
2018-10-11T18:54:01.200Z,22.20
2018-10-11T18:56:29.519Z,26.17
2018-10-11T18:58:57.915Z,23.22
2018-10-11T19:01:26.181Z,24.20
2018-10-11T19:03:54.448Z,25.40
2018-10-11T19:06:22.809Z,24.00
2018-10-11T19:08:51.045Z,23.20
2018-10-11T19:11:19.685Z,31.45
2018-10-11T19:13:47.999Z,26.95
2018-10-11T19:16:16.292Z,29.55
2018-10-11T19:18:44.667Z,25.12
2018-10-11T19:21:13.025Z,28.20
2018-10-11T19:23:41.614Z,24.37
2018-10-11T19:26:09.921Z,25.82
2018-10-11T19:28:38.174Z,26.10
2018-10-11T19:31:06.508Z,26.00
2018-10-11T19:33:34.777Z,30.17
2018-10-11T19:36:03.051Z,27.07
2018-10-11T19:38:31.627Z,27.65
2018-10-11T19:40:59.908Z,27.17
2018-10-11T19:43:28.181Z,27.00
2018-10-11T19:45:56.430Z,28.80
2018-10-11T19:48:24.698Z,29.15
2018-10-11T19:50:52.965Z,28.95
2018-10-11T19:53:21.237Z,27.30
2018-10-11T19:55:49.490Z,26.12
2018-10-11T19:58:17.798Z,25.60
2018-10-11T20:00:46.063Z,31.12
2018-10-11T20:03:14.346Z,30.62
2018-10-11T20:05:42.574Z,27.10
2018-10-11T20:08:11.285Z,27.95
2018-10-11T20:10:39.675Z,26.97
2018-10-11T20:13:07.981Z,27.05
2018-10-11T20:15:36.248Z,27.02
2018-10-11T20:18:04.907Z,27.37
2018-10-11T20:20:33.169Z,24.30
2018-10-11T20:23:01.565Z,24.40
2018-10-11T20:25:30.093Z,23.47
2018-10-11T20:27:58.343Z,23.05
2018-10-11T20:30:26.666Z,24.18
2018-10-11T20:32:54.957Z,23.98
2018-10-11T20:35:23.218Z,23.47
2018-10-11T20:37:51.462Z,21.68
2018-10-11T20:40:19.969Z,22.45
2018-10-11T20:42:48.564Z,22.75
2018-10-11T20:45:16.879Z,22.37
2018-10-11T20:47:45.437Z,22.45
2018-10-11T20:50:13.774Z,25.00
2018-10-11T20:52:42.401Z,23.20
2018-10-11T20:55:10.690Z,24.15
2018-10-11T20:57:38.989Z,23.83
2018-10-11T21:00:07.847Z,23.90
2018-10-11T21:02:36.114Z,24.43
2018-10-11T21:05:04.454Z,26.23
2018-10-11T21:07:33.718Z,28.45
2018-10-11T21:10:02.213Z,26.25
2018-10-11T21:12:30.806Z,26.48
2018-10-11T21:14:59.064Z,24.75
2018-10-11T21:17:27.415Z,24.92
2018-10-11T21:19:55.699Z,23.50
2018-10-11T21:22:23.966Z,25.15
2018-10-11T21:24:52.235Z,23.35
2018-10-11T21:27:20.491Z,21.35
2018-10-11T21:29:48.775Z,22.67
2018-10-11T21:32:17.341Z,21.57
2018-10-11T21:34:45.626Z,21.30
2018-10-11T21:37:14.016Z,24.25
2018-10-11T21:39:42.366Z,21.62
2018-10-11T21:42:10.773Z,20.80
2018-10-11T21:44:39.030Z,21.87
2018-10-11T21:47:10.551Z,22.10
2018-10-11T21:49:38.991Z,20.50
2018-10-11T21:52:07.804Z,21.25
2018-10-11T21:54:36.048Z,25.43
2018-10-11T21:57:04.304Z,21.50
2018-10-11T21:59:32.568Z,21.68
2018-10-11T22:02:00.779Z,20.63
2018-10-11T22:04:29.439Z,24.47
2018-10-11T22:06:57.981Z,19.73
2018-10-11T22:09:26.984Z,20.55
2018-10-11T22:11:55.271Z,21.10
2018-10-11T22:14:23.784Z,21.15
2018-10-11T22:16:52.069Z,21.57
2018-10-11T22:19:20.370Z,20.05
2018-10-11T22:21:48.604Z,19.53
2018-10-11T22:24:16.905Z,19.70
2018-10-11T22:26:45.572Z,19.27
2018-10-11T22:29:13.840Z,18.70
2018-10-11T22:31:42.114Z,20.70
2018-10-11T22:34:10.342Z,19.90
2018-10-11T22:36:38.627Z,18.48
2018-10-11T22:39:08.700Z,18.77
2018-10-11T22:41:37.835Z,18.25
2018-10-11T22:44:06.130Z,17.50
2018-10-11T22:46:34.411Z,18.47
2018-10-11T22:49:02.980Z,17.83
2018-10-11T22:51:31.273Z,17.12
2018-10-11T22:53:59.528Z,15.23
2018-10-11T22:56:27.789Z,15.10
2018-10-11T22:58:56.022Z,15.07
2018-10-11T23:01:24.311Z,14.63
2018-10-11T23:03:52.611Z,14.60
2018-10-11T23:06:20.925Z,15.70
2018-10-11T23:08:49.197Z,15.90
2018-10-11T23:11:17.433Z,14.50
2018-10-11T23:13:45.673Z,14.63
2018-10-11T23:16:13.934Z,16.10
2018-10-11T23:18:42.494Z,16.63
2018-10-11T23:21:11.332Z,17.83
2018-10-11T23:23:39.638Z,18.30
2018-10-11T23:26:07.950Z,18.70
2018-10-11T23:28:36.178Z,18.40
2018-10-11T23:31:04.478Z,18.53
2018-10-11T23:33:33.043Z,19.90
2018-10-11T23:36:01.431Z,19.00
2018-10-11T23:38:29.737Z,18.40
2018-10-11T23:40:58.004Z,19.20
2018-10-11T23:43:26.293Z,18.77
2018-10-11T23:45:54.544Z,18.47
2018-10-11T23:48:22.841Z,19.13
2018-10-11T23:50:51.081Z,18.83
2018-10-11T23:53:19.346Z,19.83
2018-10-11T23:55:47.618Z,19.70
2018-10-11T23:58:15.860Z,19.77
